Tiempo atmosférico en la estación meteorológica de Puntagorda, Santa Cruz de Tenerife (684 m.)



Fecha
DESCASC
Temp. máxima en grados centígrados (hora)
DESCASC
Temp. mínima en grados centígrados (hora)
DESCASC
Temp. media en grados centígrados
DESCASC
Racha de viento máxima en m/sg (hora)
DESCASC
Velocidad máxima media en intervalos de 10 minutos(hora)
DESCASC
Precipitaciones diarias en mm
DESCASC
Precipitaciones de 00:00 a 06:00 en mm
DESCASC
Precipitaciones de 06:00 a 12:00 en mm
DESCASC
Precipitaciones de 12:00 a 18:00 en mm
DESCASC
Precipitaciones de 18:00 a 24:00 en mm
DESCASC
23-06-2019 21.7 (13:40) 15.6 (00:10) 18.7 8.89 (00:20) 4.72 (00:10) 0 0 0 0 0
22-06-2019 20.7 (16:30) 13.3 (02:40) 17 9.44 (19:40) 6.67 (19:30) 0 0 0 0 0
21-06-2019 20.2 (19:30) 13.4 (07:30) 16.8 10.83 (17:40) 3.33 (19:40) 0 0 0 0 0
20-06-2019 21.7 (17:50) 14.3 (00:00) 18 8.33 (15:30) 4.44 (15:10) 0 0 0 0 0
19-06-2019 21.9 (17:40) 13.8 (00:00) 17.8 10.28 (15:10) 6.67 (14:20) 0 0 0 0 0
18-06-2019 21.4 (16:10) 15.5 (00:00) 18.4 7.22 (16:20) 3.33 (16:20) 0 0 0 0 0
17-06-2019 21.5 (16:40) 14.2 (00:00) 17.8 9.17 (12:40) 5.83 (12:40) 0 0 0 0 0
16-06-2019 19.9 (17:40) 12.3 (00:00) 16.1 5.83 (16:10) 3.33 (14:30) 0 0 0 0 0
15-06-2019 19.2 (18:50) 11.2 (00:00) 15.2 6.11 (17:20) 3.33 (17:30) 0 0 0 0 0
14-06-2019 16.4 (18:10) 11.8 (00:00) 14.1 5 (10:10) 3.06 (15:30) 1.6 0 1.6 0 0
13-06-2019 18.4 (15:20) 14.1 (00:00) 16.3 9.17 (07:50) 5 (07:50) 0 0 0 0 0
12-06-2019 21 (16:50) 13.7 (00:00) 17.3 9.44 (18:10) 5 (18:40) 0 0 0 0 0
11-06-2019 21.8 (15:20) 12.9 (00:00) 17.3 12.22 (14:20) 7.22 (14:10) 0 0 0 0 0
10-06-2019 20.8 (17:40) 11.7 (00:00) 16.2 6.11 (18:00) 3.61 (19:00) 0 0 0 0 0
09-06-2019 20.1 (16:00) 11.5 (00:00) 15.8 6.39 (14:40) 3.61 (14:40) 0 0 0 0 0
08-06-2019 21.6 (16:30) 13.1 (00:00) 17.4 10 (15:10) 6.39 (15:20) 0 0 0 0 0
07-06-2019 18.4 (13:00) 11.3 (00:00) 14.8 9.17 (00:10) 3.89 (13:00) 0 0 0 0 0
06-06-2019 19.3 (15:30) 13.4 (00:00) 16.3 9.17 (10:40) 5.28 (09:40) 0 0 0 0 0
05-06-2019 19 (19:10) 13.8 (00:00) 16.4 8.89 (17:50) 3.89 (17:50) 0 0 0 0 0
04-06-2019 24.2 (13:20) 16 (00:00) 20.1 5.83 (20:10) 3.33 (20:10) 0 0 0 0 0
03-06-2019 29.7 (12:50) 21.2 (00:00) 25.5 5.28 (21:50) 3.33 (21:50) 0 0 0 0 0
02-06-2019 30.6 (15:50) 13.4 (00:00) 22 7.78 (00:40) 3.61 (00:40) 0 0 0 0 0
01-06-2019 20.7 (18:00) 12.8 (00:00) 16.8 7.5 (23:40) 4.72 (23:40) 0 0 0 0 0
31-05-2019 21.7 (16:50) 12 (00:00) 16.9 5.56 (03:30) 2.5 (13:50) 0 0 0 0 0
30-05-2019 20.2 (17:10) 12.1 (00:00) 16.2 7.78 (18:30) 4.17 (17:20) 0 0 0 0 0
29-05-2019 20.7 (16:50) 12.6 (00:00) 16.7 5 (23:40) 3.61 (23:40) 0 0 0 0 0
28-05-2019 24.9 (14:30) 15 (00:00) 19.9 5.28 (17:20) 3.33 (15:00) 0 0 0 0 0
27-05-2019 24 (18:20) 13.5 (00:00) 18.8 4.44 (12:00) 2.78 (12:10) 0 0 0 0 0
26-05-2019 19.9 (15:00) 11.8 (00:00) 15.8 5.83 (14:50) 3.33 (11:40) 0 0 0 0 0
25-05-2019 21.4 (15:30) 13.4 (00:00) 17.4 6.11 (17:10) 3.89 (17:10) 0 0 0 0 0

Gráficas

Temp. máximas Temp. mínimas Temp. medias Precipitaciones Rachas de viento máximas Velocidades máximas media en intervalos de 10 minutos

Datos horarios

Fecha y hora oficial Temperatura (ºC) Velocidad del viento (km/h) Dirección del viento Racha (km/h) Dirección de racha Precipitación (mm) Presión (hPa) Tendencia (hPa) Humedad (%)
2019-06-23 23:00:00 16.6 2 Norte 5 Norte 0 -- -- 87
2019-06-23 22:00:00 17.5 0 Calma 6 Noroeste 0 -- -- 87
2019-06-23 21:00:00 18.1 5 Noroeste 8 Noroeste 0 -- -- 90
2019-06-23 20:00:00 18.6 3 Sur 13 Sur 0 -- -- 83
2019-06-23 19:00:00 17.8 8 Sudoeste 17 Oeste 0 -- -- 92
2019-06-23 18:00:00 18.3 9 Sudoeste 18 Sur 0 -- -- 92
2019-06-23 17:00:00 19.5 8 Sudoeste 17 Sur 0 -- -- 84
2019-06-23 16:00:00 21.5 10 Sudoeste 20 Oeste 0 -- -- 74
2019-06-23 15:00:00 20.2 6 Sudoeste 24 Sur 0 -- -- 78
2019-06-23 14:00:00 21.4 11 Sudoeste 19 Oeste 0 -- -- 71
2019-06-23 13:00:00 21.1 12 Oeste 23 Oeste 0 -- -- 74
2019-06-23 12:00:00 19.1 5 Sudoeste 14 Oeste 0 -- -- 82
2019-06-23 11:00:00 19.4 7 Noroeste 14 Oeste 0 -- -- 80
2019-06-23 10:00:00 18.4 5 Noroeste 12 Noroeste 0 -- -- 86
2019-06-23 09:00:00 17.6 8 Norte 14 Noroeste 0 -- -- 87
2019-06-23 08:00:00 16.3 10 Nordeste 17 Nordeste 0 -- -- 82
2019-06-23 07:00:00 15.6 8 Nordeste 15 Nordeste 0 -- -- 82
2019-06-23 06:00:00 16.3 10 Norte 18 Norte 0 -- -- 82
2019-06-23 05:00:00 15.9 9 Nordeste 21 Norte 0 -- -- 85
2019-06-23 04:00:00 16.3 12 Norte 21 Norte 0 -- -- 81
2019-06-23 03:00:00 16.1 12 Nordeste 24 Norte 0 -- -- 84
2019-06-23 02:00:00 16.1 11 Nordeste 26 Nordeste 0 -- -- 84
2019-06-23 01:00:00 16.1 13 Nordeste 32 Norte 0 -- -- 83
2019-06-23 00:00:00 15.7 18 Norte 31 Norte 0 -- -- 91
2019-06-22 23:00:00 16.1 15 Nordeste 29 Norte 0 -- -- 90
2019-06-22 22:00:00 16.3 17 Norte 32 Norte 0 -- -- 90
2019-06-22 21:00:00 17.3 21 Norte 32 Norte 0 -- -- 80
2019-06-22 20:00:00 18.4 23 Norte 34 Norte 0 -- -- 77
2019-06-22 19:00:00 19.4 21 Norte 33 Norte 0 -- -- 70
2019-06-22 18:00:00 20.1 19 Norte 32 Nordeste 0 -- -- 64
2019-06-22 17:00:00 20.5 19 Norte 32 Norte 0 -- -- 64
2019-06-22 16:00:00 20.5 18 Norte 32 Norte 0 -- -- 64
2019-06-22 15:00:00 20.6 15 Norte 30 Norte 0 -- -- 67
2019-06-22 14:00:00 18.6 16 Norte 32 Norte 0 -- -- 76
2019-06-22 13:00:00 18.1 11 Norte 22 Noroeste 0 -- -- 76
2019-06-22 12:00:00 17.8 5 Norte 15 Norte 0 -- -- 79
2019-06-22 11:00:00 17.7 8 Norte 22 Norte 0 -- -- 80
2019-06-22 10:00:00 17 6 Norte 18 Norte 0 -- -- 81
2019-06-22 09:00:00 15.5 6 Norte 18 Nordeste 0 -- -- 82
2019-06-22 08:00:00 13.6 4 Este 8 Sudeste 0 -- -- 88
2019-06-22 07:00:00 13.3 3 Sudeste 6 Sudeste 0 -- -- 88
2019-06-22 06:00:00 13.5 4 Sudeste 8 Sudeste 0 -- -- 88
2019-06-22 05:00:00 13.7 4 Sudeste 10 Este 0 -- -- 90
2019-06-22 04:00:00 13.5 4 Sudeste 8 Sudeste 0 -- -- 78
2019-06-22 03:00:00 13.5 4 Sudeste 7 Sudeste 0 -- -- 81
2019-06-22 02:00:00 14.1 3 Sudeste 9 Sudeste 0 -- -- 82
2019-06-22 01:00:00 14.5 9 Este 15 Este 0 -- -- 87
2019-06-22 00:00:00 15.1 2 Sudeste 5 Sudeste 0 -- -- 88
2019-06-21 23:00:00 15.7 0 Calma 5 Sudeste 0 -- -- 90
2019-06-21 22:00:00 16.4 2 Sudeste 21 Norte 0 -- -- 82
2019-06-21 21:00:00 18 9 Noroeste 22 Noroeste 0 -- -- 64
2019-06-21 20:00:00 19.5 11 Norte 23 Norte 0 -- -- 68
2019-06-21 19:00:00 18.1 7 Oeste 14 Sudoeste 0 -- -- 82
2019-06-21 18:00:00 19.7 7 Sudoeste 39 Noroeste 0 -- -- 72
2019-06-21 17:00:00 18.3 9 Sur 26 Sur 0 -- -- 76
2019-06-21 16:00:00 18.4 9 Sur 17 Sudoeste 0 -- -- 76
2019-06-21 15:00:00 18.1 6 Sudoeste 12 Oeste 0 -- -- 77
2019-06-21 14:00:00 17.7 6 Sudoeste 15 Sudoeste 0 -- -- 81
2019-06-21 13:00:00 18.5 9 Sudoeste 15 Sudoeste 0 -- -- 77
2019-06-21 12:00:00 18.4 10 Sur 15 Sur 0 -- -- 78
2019-06-21 11:00:00 18.2 6 Oeste 13 Sudoeste 0 -- -- 76
2019-06-21 10:00:00 17.2 5 Sudoeste 11 Noroeste 0 -- -- 78
2019-06-21 09:00:00 15.8 4 Norte 12 Norte 0 -- -- 83
2019-06-21 08:00:00 13.9 3 Sudeste 7 Sudeste 0 -- -- 87
2019-06-21 07:00:00 13.5 4 Sudeste 8 Sudeste 0 -- -- 86
2019-06-21 06:00:00 13.6 2 Sudeste 6 Este 0 -- -- 87
2019-06-21 05:00:00 14.1 2 Este 7 Sudeste 0 -- -- 87
2019-06-21 04:00:00 14 4 Sudeste 8 Sudeste 0 -- -- 82
2019-06-21 03:00:00 14.7 2 Sudeste 6 Sudeste 0 -- -- 86
2019-06-21 02:00:00 15 2 Sudeste 6 Sudeste 0 -- -- 85
2019-06-21 01:00:00 14.7 3 Sudeste 10 Sudeste 0 -- -- 86
2019-06-21 00:00:00 15.9 2 Sudeste 6 Sudeste 0 -- -- 85
2019-06-20 23:00:00 16.3 3 Sudoeste 6 Sudoeste 0 -- -- 89
2019-06-20 22:00:00 17 3 Oeste 6 Noroeste 0 -- -- 84
2019-06-20 21:00:00 18 7 Norte 22 Norte 0 -- -- 73
2019-06-20 20:00:00 20.6 6 Norte 21 Norte 0 -- -- 66
2019-06-20 19:00:00 20.9 10 Norte 28 Norte 0 -- -- 59
2019-06-20 18:00:00 21.1 10 Norte 27 Norte 0 -- -- 60
2019-06-20 17:00:00 21 12 Norte 25 Norte 0 -- -- 67
2019-06-20 16:00:00 20.9 7 Norte 30 Norte 0 -- -- 68
2019-06-20 15:00:00 21.1 13 Norte 24 Noroeste 0 -- -- 66
2019-06-20 14:00:00 21.1 8 Nordeste 25 Noroeste 0 -- -- 62
2019-06-20 13:00:00 20 10 Oeste 23 Noroeste 0 -- -- 68
2019-06-20 12:00:00 20.2 10 Noroeste 22 Norte 0 -- -- 65
2019-06-20 11:00:00 19 8 Norte 20 Noroeste 0 -- -- 70
2019-06-20 10:00:00 17.7 9 Norte 18 Noroeste 0 -- -- 75
2019-06-20 09:00:00 15.7 4 Sur 8 Nordeste 0 -- -- 79
2019-06-20 08:00:00 15.3 3 Sudoeste 19 Norte 0 -- -- 69
2019-06-20 07:00:00 15.2 11 Nordeste 19 Norte 0 -- -- 67
2019-06-20 06:00:00 15.1 13 Norte 22 Norte 0 -- -- 66
2019-06-20 05:00:00 15 8 Nordeste 19 Nordeste 0 -- -- 68
2019-06-20 04:00:00 14.5 8 Nordeste 24 Norte 0 -- -- 83
2019-06-20 03:00:00 14.8 10 Nordeste 23 Nordeste 0 -- -- 84
2019-06-20 02:00:00 14.9 10 Nordeste 22 Norte 0 -- -- 78
2019-06-20 01:00:00 14.9 8 Nordeste 19 Nordeste 0 -- -- 75
2019-06-20 00:00:00 15 10 Nordeste 23 Norte 0 -- -- 81
2019-06-19 23:00:00 15.6 13 Nordeste 23 Norte 0 -- -- 89
2019-06-19 22:00:00 16.3 8 Nordeste 15 Nordeste 0 -- -- 87
2019-06-19 21:00:00 18.2 7 Norte 19 Norte 0 -- -- 78
2019-06-19 20:00:00 19.8 12 Norte 26 Norte 0 -- -- 68
2019-06-19 19:00:00 21.1 12 Norte 26 Norte 0 -- -- 57
2019-06-19 18:00:00 21.1 14 Norte 34 Norte 0 -- -- 56
2019-06-19 17:00:00 20.9 22 Norte 35 Norte 0 -- -- 59
2019-06-19 16:00:00 21.3 18 Norte 37 Norte 0 -- -- 57
2019-06-19 15:00:00 21.2 23 Norte 37 Norte 0 -- -- 57
2019-06-19 14:00:00 -- 21 Norte -- -- -- -- -- --
2019-06-19 13:00:00 20.3 18 Norte 33 Norte -- -- -- 69
2019-06-19 12:00:00 19.5 15 Norte 30 Norte 0 -- -- 75
2019-06-19 11:00:00 18 15 Norte 23 Norte 0 -- -- 79
2019-06-19 10:00:00 17.7 9 Norte 18 Noroeste 0 -- -- 81
2019-06-19 09:00:00 16.1 9 Norte 14 Norte 0 -- -- 92
2019-06-19 08:00:00 15 6 Nordeste 13 Nordeste 0 -- -- 87
2019-06-19 07:00:00 15.2 8 Nordeste 16 Este 0 -- -- 83
2019-06-19 06:00:00 14.6 9 Nordeste 20 Nordeste 0 -- -- 83
2019-06-19 05:00:00 13.8 6 Nordeste 17 Nordeste 0 -- -- 82
2019-06-19 04:00:00 14.3 8 Nordeste 15 Nordeste 0 -- -- 80
2019-06-19 03:00:00 15 8 Nordeste 15 Nordeste 0 -- -- 76
2019-06-19 02:00:00 15 8 Nordeste 15 Nordeste 0 -- -- 77
2019-06-19 01:00:00 15.4 9 Nordeste 13 Nordeste 0 -- -- 75
2019-06-19 00:00:00 -- -- -- -- -- -- -- -- --
2019-06-18 23:00:00 -- -- -- -- -- -- -- -- --
2019-06-18 22:00:00 -- -- -- -- -- -- -- -- --
2019-06-18 21:00:00 -- -- -- -- -- -- -- -- --
2019-06-18 20:00:00 -- -- -- -- -- -- -- -- --
2019-06-18 19:00:00 -- -- -- -- -- -- -- -- --
2019-06-18 18:00:00 21.1 11 Noroeste 20 Oeste 0 -- -- 71
2019-06-18 17:00:00 21.3 10 Noroeste 26 Oeste 0 -- -- 61
2019-06-18 16:00:00 21.1 11 Noroeste 21 Oeste 0 -- -- 66
2019-06-18 15:00:00 19.9 8 Noroeste 19 Oeste 0 -- -- 74
2019-06-18 14:00:00 19 7 Noroeste 19 Oeste 0 -- -- 76
2019-06-18 13:00:00 19.1 7 Oeste 16 Norte 0 -- -- 79
2019-06-18 12:00:00 19.3 7 Noroeste 15 Oeste 0 -- -- 81
2019-06-18 11:00:00 18.3 5 Norte 10 Noroeste 0 -- -- 82
2019-06-18 10:00:00 17.8 4 Noroeste 8 Noroeste 0 -- -- 91
2019-06-18 09:00:00 17.3 0 Calma 8 Sur 0 -- -- 92
2019-06-18 08:00:00 17.2 4 Sur 7 Sur 0 -- -- 93
2019-06-18 07:00:00 16.7 0 Calma 6 Oeste 0 -- -- 91
2019-06-18 06:00:00 17.2 4 Sudeste 10 Oeste 0 -- -- 88
2019-06-18 05:00:00 17.3 4 Sur 15 Sur 0 -- -- 88
2019-06-18 04:00:00 16.3 3 Sudeste 6 Este 0 -- -- 88
2019-06-18 03:00:00 16.6 4 Oeste 8 Oeste 0 -- -- 95
2019-06-18 02:00:00 16.6 4 Sudoeste 9 Sur 0 -- -- 96
2019-06-18 01:00:00 16.8 7 Sur 13 Sudoeste 0 -- -- 96
2019-06-18 00:00:00 17 7 Sur 13 Sur 0 -- -- 94
2019-06-17 23:00:00 16.9 10 Sur 13 Sudoeste 0 -- -- 96
2019-06-17 22:00:00 17.3 8 Sur 15 Sudoeste 0 -- -- 95
2019-06-17 21:00:00 17.9 9 Sudoeste 14 Sur 0 -- -- 92
2019-06-17 20:00:00 20.4 7 Sudoeste 18 Sudoeste 0 -- -- 76
2019-06-17 19:00:00 20.4 10 Sudoeste 18 Sudoeste 0 -- -- 74
2019-06-17 18:00:00 21.2 12 Sudoeste 24 Sur 0 -- -- 68
2019-06-17 17:00:00 21.1 16 Sudoeste 24 Sur 0 -- -- 64
2019-06-17 16:00:00 20.6 17 Sudoeste 30 Sudoeste 0 -- -- 72
2019-06-17 15:00:00 20.6 19 Sur 29 Sur 0 -- -- 73
2019-06-17 14:00:00 19.2 18 Sudoeste 29 Sudoeste 0 -- -- 84
2019-06-17 13:00:00 19.4 21 Sudoeste 33 Sur 0 -- -- 83
2019-06-17 12:00:00 19.1 17 Sur 24 Sudoeste 0 -- -- 78
2019-06-17 11:00:00 20.1 12 Sur 17 Sudoeste 0 -- -- 74
2019-06-17 10:00:00 17.8 13 Sur 25 Sur 0 -- -- 77
2019-06-17 09:00:00 15.8 18 Sur 26 Sur 0 -- -- 83
2019-06-17 08:00:00 15.7 18 Sur 24 Sur 0 -- -- 86
2019-06-17 07:00:00 15.5 13 Sur 24 Sur 0 -- -- 79
2019-06-17 06:00:00 14.3 13 Sur 23 Sur 0 -- -- 92
2019-06-17 05:00:00 14.6 15 Sur 23 Sur 0 -- -- 94
2019-06-17 04:00:00 14.6 15 Sur 21 Sur 0 -- -- 89
2019-06-17 03:00:00 14.9 8 Sur 14 Sur 0 -- -- 70
2019-06-17 02:00:00 14.4 7 Sur 19 Sur 0 -- -- 72
2019-06-17 01:00:00 14.3 9 Sur 14 Sur 0 -- -- 83
2019-06-17 00:00:00 14.3 8 Sudeste 16 Sur 0 -- -- 76
2019-06-16 23:00:00 14.6 8 Sur 13 Sur 0 -- -- 87
2019-06-16 22:00:00 15.7 0 Calma 8 Nordeste 0 -- -- 78
2019-06-16 21:00:00 17.1 3 Sur 9 Oeste 0 -- -- 73
2019-06-16 20:00:00 19.3 5 Oeste 13 Oeste 0 -- -- 60
2019-06-16 19:00:00 19.1 7 Sudoeste 19 Sudoeste 0 -- -- 64
2019-06-16 18:00:00 19.3 11 Sudoeste 19 Sudoeste 0 -- -- 60
2019-06-16 17:00:00 19.5 8 Oeste 21 Sudoeste 0 -- -- 66
2019-06-16 16:00:00 18.7 11 Sur 20 Sudoeste 0 -- -- 72
2019-06-16 15:00:00 17.7 12 Sur 20 Sudoeste 0 -- -- 80
2019-06-16 14:00:00 18.4 11 Sudoeste 19 Sudoeste 0 -- -- 77
2019-06-16 13:00:00 18.1 9 Sur 17 Sudoeste 0 -- -- 79
2019-06-16 12:00:00 16.8 7 Sur 15 Sur 0 -- -- 86
2019-06-16 11:00:00 16.2 5 Sudoeste 10 Oeste 0 -- -- 87
2019-06-16 10:00:00 14.9 3 Oeste 6 Oeste 0 -- -- 93
2019-06-16 09:00:00 13.8 0 Calma 4 Nordeste 0 -- -- 97
2019-06-16 08:00:00 12.9 0 Calma 5 Sudeste 0 -- -- 96
2019-06-16 07:00:00 12.7 0 Calma 5 Sudeste 0 -- -- 94
2019-06-16 06:00:00 13.3 0 Calma 3 Noroeste 0 -- -- 95
2019-06-16 05:00:00 12.6 2 Norte 6 Este 0 -- -- 94
2019-06-16 04:00:00 12.7 0 Calma 6 Sudeste 0 -- -- 94
2019-06-16 03:00:00 12.4 5 Sudeste 11 Nordeste 0 -- -- 85
2019-06-16 02:00:00 12.6 0 Calma 10 Este 0 -- -- 80
2019-06-16 01:00:00 12.6 8 Este 10 Este 0 -- -- 79
2019-06-16 00:00:00 12.9 5 Nordeste 10 Este 0 -- -- 79
2019-06-15 23:00:00 13.3 8 Este 10 Nordeste 0 -- -- 79
2019-06-15 22:00:00 14.1 5 Nordeste 12 Norte 0 -- -- 85
2019-06-15 21:00:00 16.1 9 Norte 19 Noroeste 0 -- -- 78
2019-06-15 20:00:00 18.9 8 Noroeste 20 Oeste 0 -- -- 62
2019-06-15 19:00:00 18.8 8 Noroeste 18 Oeste 0 -- -- 60
2019-06-15 18:00:00 17.8 9 Noroeste 22 Noroeste 0 -- -- 71
2019-06-15 17:00:00 17.8 8 Noroeste 18 Noroeste 0 -- -- 69
2019-06-15 16:00:00 16.9 7 Noroeste 15 Sudeste 0 -- -- 73
2019-06-15 15:00:00 16.7 7 Sudoeste 16 Sudoeste 0 -- -- 82
2019-06-15 14:00:00 17 8 Oeste 14 Sudoeste 0 -- -- 77
2019-06-15 13:00:00 16 5 Sur 14 Sur 0 -- -- 82
2019-06-15 12:00:00 15.7 8 Sudoeste 14 Sur 0 -- -- 89
2019-06-15 11:00:00 15.3 5 Sudoeste 8 Sudoeste 0 -- -- 86
2019-06-15 10:00:00 14 3 Sur 8 Sur 0 -- -- 96
2019-06-15 09:00:00 13.9 3 Oeste 6 Oeste 0 -- -- 94
2019-06-15 08:00:00 13.5 0 Calma 6 Nordeste 0 -- -- 94
2019-06-15 07:00:00 12.4 4 Nordeste 8 Nordeste 0 -- -- 88
2019-06-15 06:00:00 11.3 4 Este 6 Este 0 -- -- 91
2019-06-15 05:00:00 11.4 5 Sudeste 7 Sudeste 0 -- -- 93
2019-06-15 04:00:00 11.3 4 Sudeste 8 Sudeste 0 -- -- 92
2019-06-15 03:00:00 11.9 4 Sudeste 6 Sudeste 0 -- -- 91
2019-06-15 02:00:00 12.1 3 Este 9 Sudeste 0 -- -- 91
2019-06-15 01:00:00 12.1 0 Calma 8 Sudeste 0 -- -- 90
2019-06-15 00:00:00 12.3 5 Sudeste 9 Sudeste 0 -- -- 87
2019-06-14 23:00:00 13.6 0 Calma 2 Sudeste 0 -- -- 89
2019-06-14 22:00:00 14.7 0 Calma 8 Sur 0 -- -- 86
2019-06-14 21:00:00 15.6 4 Sudoeste 9 Sur 0 -- -- 84
2019-06-14 20:00:00 16.1 5 Sur 11 Sur 0 -- -- 80
2019-06-14 19:00:00 16.3 7 Sudoeste 15 Sur 0 -- -- 72
2019-06-14 18:00:00 16.2 5 Sudoeste 14 Sudoeste 0 -- -- 74
2019-06-14 17:00:00 16.1 8 Sur 17 Sur 0 -- -- 78
2019-06-14 16:00:00 16 11 Sur 17 Sur 0 -- -- 79
2019-06-14 15:00:00 16.1 7 Sur 13 Sur 0 -- -- 78
2019-06-14 14:00:00 15.7 6 Sur 14 Sur 0 -- -- 79
2019-06-14 13:00:00 15.1 5 Sur 10 Sur 0 -- -- 88
2019-06-14 12:00:00 14.9 3 Sudoeste 10 Oeste 1.6 -- -- 94
2019-06-14 11:00:00 15.1 3 Oeste 18 Sudoeste 0 -- -- 88
2019-06-14 10:00:00 15.2 11 Sudoeste 16 Sur 0 -- -- 86
2019-06-14 09:00:00 14.6 3 Oeste 7 Oeste 0 -- -- 83
2019-06-14 08:00:00 12.5 3 Este 7 Sudeste 0 -- -- 89
2019-06-14 07:00:00 12 5 Sudeste 10 Sudeste 0 -- -- 81
2019-06-14 06:00:00 12.2 2 Este 9 Nordeste 0 -- -- 79
2019-06-14 05:00:00 12.2 6 Este 10 Este 0 -- -- 83
2019-06-14 04:00:00 12.9 0 Calma 4 Nordeste 0 -- -- 85
2019-06-14 03:00:00 13.1 3 Nordeste 8 Nordeste 0 -- -- 87
2019-06-14 02:00:00 14 2 Este 8 Sudoeste 0 -- -- 92
2019-06-14 01:00:00 14.1 2 Sudoeste 4 Sudoeste 0 -- -- 92
2019-06-14 00:00:00 14.3 3 Sudoeste 9 Sur 0 -- -- 93
2019-06-13 23:00:00 14.3 5 Sur 7 Sur 0 -- -- 89
2019-06-13 22:00:00 15 5 Sur 15 Sudoeste 0 -- -- 88
2019-06-13 21:00:00 15.7 6 Sudoeste 14 Sudoeste 0 -- -- 83
2019-06-13 20:00:00 16.4 6 Oeste 13 Sudoeste 0 -- -- 80
2019-06-13 19:00:00 16.4 8 Sudoeste 16 Sudoeste 0 -- -- 80
2019-06-13 18:00:00 17.1 9 Sudoeste 16 Sudoeste 0 -- -- 76
2019-06-13 17:00:00 17.2 11 Sur 22 Sur 0 -- -- 76
2019-06-13 16:00:00 17.3 16 Sudoeste 28 Sudoeste 0 -- -- 77
2019-06-13 15:00:00 17.6 7 Oeste 17 Sudoeste 0 -- -- 72
2019-06-13 14:00:00 17.7 12 Sur 18 Sur 0 -- -- 72
2019-06-13 13:00:00 16.8 12 Sudoeste 20 Sudoeste 0 -- -- 78
2019-06-13 12:00:00 16.6 6 Sudoeste 15 Sudoeste 0 -- -- 76
2019-06-13 11:00:00 17.1 7 Sur 16 Sur 0 -- -- 76
2019-06-13 10:00:00 17.7 6 Noroeste 27 Nordeste 0 -- -- 66
2019-06-13 09:00:00 15.8 12 Nordeste 31 Nordeste 0 -- -- 63
2019-06-13 08:00:00 14.7 14 Nordeste 33 Nordeste 0 -- -- 68
2019-06-13 07:00:00 14.2 13 Nordeste 26 Nordeste 0 -- -- 69
2019-06-13 06:00:00 14.3 8 Nordeste 15 Nordeste 0 -- -- 75
2019-06-13 05:00:00 14.8 6 Sur 21 Norte 0 -- -- 84
2019-06-13 04:00:00 14.4 13 Nordeste 31 Nordeste 0 -- -- 70
2019-06-13 03:00:00 14.7 0 Calma 21 Nordeste 0 -- -- 83
2019-06-13 02:00:00 14.4 12 Nordeste 32 Nordeste 0 -- -- 71
2019-06-13 01:00:00 14.6 15 Nordeste 32 Nordeste 0 -- -- 74
2019-06-13 00:00:00 15.1 17 Nordeste 32 Norte 0 -- -- 74
2019-06-12 23:00:00 15.6 13 Nordeste 30 Nordeste 0 -- -- 73
2019-06-12 22:00:00 15.5 6 Norte 24 Norte 0 -- -- 78
2019-06-12 21:00:00 16.8 6 Norte 17 Sudeste 0 -- -- 76
2019-06-12 20:00:00 19.7 6 Sudeste 28 Norte 0 -- -- 67
2019-06-12 19:00:00 20.2 17 Norte 34 Nordeste 0 -- -- 57
2019-06-12 18:00:00 20.5 16 Norte 33 Norte 0 -- -- 58
2019-06-12 17:00:00 20.9 11 Oeste 27 Sudoeste 0 -- -- 68
2019-06-12 16:00:00 18.2 7 Sudoeste 14 Oeste 0 -- -- 81
2019-06-12 15:00:00 18 9 Sudoeste 21 Sudoeste 0 -- -- 82
2019-06-12 14:00:00 18.5 12 Sur 22 Sudoeste 0 -- -- 81
2019-06-12 13:00:00 18.3 9 Sudoeste 22 Sudoeste 0 -- -- 80
2019-06-12 12:00:00 18 12 Sudoeste 26 Este 0 -- -- 84
2019-06-12 11:00:00 16.5 5 Nordeste 15 Norte 0 -- -- 87
2019-06-12 10:00:00 16.2 8 Sudoeste 13 Oeste 0 -- -- 90
2019-06-12 09:00:00 15.7 4 Sudoeste 12 Nordeste 0 -- -- 93
2019-06-12 08:00:00 14.8 4 Sudeste 13 Sudeste 0 -- -- 96
2019-06-12 07:00:00 14.1 7 Este 14 Sudeste 0 -- -- 95
2019-06-12 06:00:00 14.8 0 Calma 5 Sur 0 -- -- 94
2019-06-12 05:00:00 15.2 2 Sudoeste 10 Oeste 0 -- -- 95
2019-06-12 04:00:00 15 6 Sur 10 Sudoeste 0 -- -- 97
2019-06-12 03:00:00 14.7 4 Sudeste 13 Sur 0 -- -- 93
2019-06-12 02:00:00 15.5 5 Nordeste 12 Sur 0 -- -- 95
2019-06-12 01:00:00 15.7 6 Sur 12 Sudoeste 0 -- -- 95
2019-06-12 00:00:00 15.8 8 Sudoeste 12 Sur 0 -- -- 97
2019-06-11 23:00:00 16.2 4 Sur 9 Sudoeste 0 -- -- 94
2019-06-11 22:00:00 16.5 6 Sur 12 Sudoeste 0 -- -- 94
2019-06-11 21:00:00 17.7 7 Sudoeste 14 Sur 0 -- -- 83
2019-06-11 20:00:00 19.5 7 Sudoeste 19 Sudoeste 0 -- -- 77
2019-06-11 19:00:00 19.2 14 Sur 20 Sudoeste 0 -- -- 80
2019-06-11 18:00:00 19.6 8 Sudoeste 19 Sudoeste 0 -- -- 76
2019-06-11 17:00:00 20.7 8 Sur 20 Oeste 0 -- -- 71
2019-06-11 16:00:00 21 12 Sudoeste 31 Noroeste 0 -- -- 62
2019-06-11 15:00:00 21.3 8 Oeste 44 Norte 0 -- -- 65
2019-06-11 14:00:00 19.8 25 Norte 42 Norte 0 -- -- 74
2019-06-11 13:00:00 18.8 8 Sur 19 Sur 0 -- -- 70
2019-06-11 12:00:00 19.1 12 Sur 19 Sudoeste 0 -- -- 68
2019-06-11 11:00:00 17.1 8 Sudoeste 15 Oeste 0 -- -- 78
2019-06-11 10:00:00 16.9 7 Sudoeste 13 Sudoeste 0 -- -- 74
2019-06-11 09:00:00 14.6 2 Nordeste 7 Nordeste 0 -- -- 86
2019-06-11 08:00:00 13.4 2 Sudeste 5 Oeste 0 -- -- 93
2019-06-11 07:00:00 13.5 2 Sur 10 Sur 0 -- -- 96
2019-06-11 06:00:00 13 0 Calma 10 Este 0 -- -- 85
2019-06-11 05:00:00 13.7 5 Sudeste 9 Sudeste 0 -- -- 90
2019-06-11 04:00:00 14.5 3 Sudoeste 8 Oeste 0 -- -- 95
2019-06-11 03:00:00 13.4 2 Sur 9 Nordeste 0 -- -- 91
2019-06-11 02:00:00 14.2 6 Sur 12 Sur 0 -- -- 88
2019-06-11 01:00:00 14.4 5 Sudeste 14 Sur 0 -- -- 91
2019-06-11 00:00:00 14.8 6 Sur 14 Sur 0 -- -- 92
2019-06-10 23:00:00 15.6 11 Sur 15 Sur 0 -- -- 91
2019-06-10 22:00:00 16 4 Sur 14 Sur 0 -- -- 86
2019-06-10 21:00:00 16.5 8 Sudoeste 15 Sur 0 -- -- 85
2019-06-10 20:00:00 18.2 5 Sudoeste 17 Sudoeste 0 -- -- 77
2019-06-10 19:00:00 19.2 13 Sudoeste 22 Sudoeste 0 -- -- 69
2019-06-10 18:00:00 20.1 10 Sur 22 Sudoeste 0 -- -- 64
2019-06-10 17:00:00 20.2 8 Oeste 17 Oeste 0 -- -- 66
2019-06-10 16:00:00 19.9 9 Sudoeste 22 Sudoeste 0 -- -- 69
2019-06-10 15:00:00 19.5 9 Sudoeste 19 Oeste 0 -- -- 66
2019-06-10 14:00:00 19.4 9 Sudoeste 18 Sudoeste 0 -- -- 67
2019-06-10 13:00:00 19.3 10 Sur 17 Sur 0 -- -- 69
2019-06-10 12:00:00 17.8 9 Sudoeste 17 Sur 0 -- -- 75
2019-06-10 11:00:00 16.4 6 Sudoeste 13 Sudoeste 0 -- -- 79
2019-06-10 10:00:00 15.3 8 Sudoeste 14 Sudoeste 0 -- -- 85
2019-06-10 09:00:00 13.4 2 Norte 9 Sudeste 0 -- -- 93
2019-06-10 08:00:00 12.1 6 Sudeste 9 Sudeste 0 -- -- 93
2019-06-10 07:00:00 12.6 2 Sur 8 Sur 0 -- -- 90
2019-06-10 06:00:00 12.2 3 Sudeste 9 Este 0 -- -- 74
2019-06-10 05:00:00 12 4 Sudeste 10 Sur 0 -- -- 91
2019-06-10 04:00:00 12.7 4 Sur 8 Sur 0 -- -- 93
2019-06-10 03:00:00 12.8 4 Sur 10 Sur 0 -- -- 95
2019-06-10 02:00:00 12.8 4 Sur 10 Sur 0 -- -- 91
2019-06-10 01:00:00 13.8 4 Sur 8 Sudoeste 0 -- -- 94
2019-06-10 00:00:00 14.3 2 Sur 12 Sur 0 -- -- 94
2019-06-09 23:00:00 14.3 8 Sur 11 Sur 0 -- -- 94
2019-06-09 22:00:00 14.9 5 Sur 12 Sudoeste 0 -- -- 88
2019-06-09 21:00:00 15.7 9 Sudoeste 18 Sur 0 -- -- 86
2019-06-09 20:00:00 17.6 10 Sur 16 Sudoeste 0 -- -- 79
2019-06-09 19:00:00 18.9 8 Sudoeste 18 Sur 0 -- -- 74
2019-06-09 18:00:00 19.3 9 Sudoeste 21 Sur 0 -- -- 64
2019-06-09 17:00:00 19.5 12 Sudoeste 21 Sudoeste 0 -- -- 63
2019-06-09 16:00:00 20.1 10 Sudoeste 17 Oeste 0 -- -- 63
2019-06-09 15:00:00 18.6 9 Oeste 23 Sudoeste 0 -- -- 67
2019-06-09 14:00:00 18.7 11 Sudoeste 23 Sur 0 -- -- 63
2019-06-09 13:00:00 18.6 9 Sur 20 Sur 0 -- -- 66
2019-06-09 12:00:00 17.9 10 Sudoeste 18 Sur 0 -- -- 69
2019-06-09 11:00:00 16.7 10 Sur 18 Sur 0 -- -- 76
2019-06-09 10:00:00 15.3 6 Sur 14 Sur 0 -- -- 80
2019-06-09 09:00:00 13.5 4 Sur 9 Sudoeste 0 -- -- 84
2019-06-09 08:00:00 11.6 4 Sur 10 Sudeste 0 -- -- 89
2019-06-09 07:00:00 11.6 5 Sudeste 13 Sudeste 0 -- -- 86
2019-06-09 06:00:00 11.6 10 Sudeste 14 Sudeste 0 -- -- 85
2019-06-09 05:00:00 11.7 4 Este 9 Sudeste 0 -- -- 85
2019-06-09 04:00:00 12 6 Sudeste 11 Sudeste 0 -- -- 88
2019-06-09 03:00:00 12 5 Sudeste 10 Sudeste 0 -- -- 83
2019-06-09 02:00:00 12.5 5 Este 8 Este 0 -- -- 86
2019-06-09 01:00:00 12.6 5 Sudeste 8 Sudeste 0 -- -- 85
2019-06-09 00:00:00 13.1 4 Sudeste 7 Sudeste 0 -- -- 81
2019-06-08 23:00:00 14.4 5 Este 12 Norte 0 -- -- 72
2019-06-08 22:00:00 15.1 6 Nordeste 12 Norte 0 -- -- 64
2019-06-08 21:00:00 16.5 3 Oeste 19 Sudoeste 0 -- -- 78
2019-06-08 20:00:00 18.3 8 Sudoeste 18 Oeste 0 -- -- 72
2019-06-08 19:00:00 18.4 9 Sudoeste 22 Sur 0 -- -- 74
2019-06-08 18:00:00 19.7 13 Sur 25 Sudoeste 0 -- -- 69
2019-06-08 17:00:00 20.8 12 Oeste 27 Norte 0 -- -- 55
2019-06-08 16:00:00 20.6 17 Norte 36 Norte 0 -- -- 52
2019-06-08 15:00:00 19.6 21 Norte 35 Norte 0 -- -- 55
2019-06-08 14:00:00 20 12 Norte 24 Norte 0 -- -- 58
2019-06-08 13:00:00 17.8 7 Sudoeste 18 Sudoeste 0 -- -- 88
2019-06-08 12:00:00 16.5 5 Oeste 13 Sudoeste 0 -- -- 94
2019-06-08 11:00:00 17.1 5 Sudoeste 16 Nordeste 0 -- -- 89
2019-06-08 10:00:00 17.2 8 Nordeste 16 Este 0 -- -- 79
2019-06-08 09:00:00 16 3 Oeste 7 Oeste 0 -- -- 91
2019-06-08 08:00:00 15.4 5 Sur 9 Este 0 -- -- 89
2019-06-08 07:00:00 14.4 0 Calma 5 Norte 0 -- -- 88
2019-06-08 06:00:00 13.9 4 Sudeste 8 Sudeste 0 -- -- 89
2019-06-08 05:00:00 14.3 5 Sudeste 10 Nordeste 0 -- -- 88
2019-06-08 04:00:00 14.1 7 Sudeste 11 Sudeste 0 -- -- 90
2019-06-08 03:00:00 14 2 Sur 6 Nordeste 0 -- -- 88
2019-06-08 02:00:00 14 0 Calma 6 Este 0 -- -- 89
2019-06-08 01:00:00 14 2 Este 6 Nordeste 0 -- -- 89
2019-06-08 00:00:00 14.7 0 Calma 6 Este 0 -- -- 88
2019-06-07 23:00:00 15.7 3 Sudoeste 5 Sur 0 -- -- 89
2019-06-07 22:00:00 16 0 Calma 6 Sur 0 -- -- 85
2019-06-07 21:00:00 16.9 4 Sur 10 Sur 0 -- -- 83
2019-06-07 20:00:00 17.8 4 Sudoeste 13 Sur 0 -- -- 79
2019-06-07 19:00:00 17.3 5 Sur 13 Sur 0 -- -- 82
2019-06-07 18:00:00 17.2 6 Sudoeste 18 Sur 0 -- -- 81
2019-06-07 17:00:00 17.8 9 Sudoeste 17 Sudoeste 0 -- -- 77
2019-06-07 16:00:00 17.6 8 Sudoeste 17 Sudoeste 0 -- -- 75
2019-06-07 15:00:00 18 9 Sur 19 Sur 0 -- -- 74
2019-06-07 14:00:00 18.3 11 Sur 24 Sur 0 -- -- 71
2019-06-07 13:00:00 18.4 14 Sur 21 Sudoeste 0 -- -- 71
2019-06-07 12:00:00 17 10 Sudoeste 20 Sur 0 -- -- 77
2019-06-07 11:00:00 16.3 13 Sur 21 Sur 0 -- -- 78
2019-06-07 10:00:00 15.6 6 Sur 12 Sur 0 -- -- 78
2019-06-07 09:00:00 13.2 0 Calma 6 Este 0 -- -- 90
2019-06-07 08:00:00 11.7 4 Sudeste 6 Sudeste 0 -- -- 91
2019-06-07 07:00:00 11.6 5 Sudeste 9 Sudeste 0 -- -- 91
2019-06-07 06:00:00 11.4 5 Este 8 Sudeste 0 -- -- 89
2019-06-07 05:00:00 12 4 Este 8 Sudeste 0 -- -- 87
2019-06-07 04:00:00 12.4 4 Sudeste 13 Nordeste 0 -- -- 85
2019-06-07 03:00:00 13.3 7 Nordeste 16 Este 0 -- -- 83
2019-06-07 02:00:00 13.4 9 Nordeste 18 Nordeste 0 -- -- 78
2019-06-07 01:00:00 13.8 3 Este 33 Este 0 -- -- 74
2019-06-07 00:00:00 14 7 Nordeste 33 Nordeste 0 -- -- 70
2019-06-06 23:00:00 14.1 14 Nordeste 32 Nordeste 0 -- -- 71
2019-06-06 22:00:00 14.3 14 Nordeste 30 Nordeste 0 -- -- 68
2019-06-06 21:00:00 15.6 13 Nordeste 30 Nordeste 0 -- -- 66
2019-06-06 20:00:00 18 12 Norte 31 Nordeste 0 -- -- 62
2019-06-06 19:00:00 16.7 9 Norte 26 Norte 0 -- -- 65
2019-06-06 18:00:00 17.4 7 Sudoeste 22 Sudoeste 0 -- -- 73
2019-06-06 17:00:00 18 8 Oeste 19 Sudoeste 0 -- -- 66
2019-06-06 16:00:00 18.8 11 Sudoeste 19 Sudoeste 0 -- -- 65
2019-06-06 15:00:00 17.5 10 Sudoeste 24 Noroeste 0 -- -- 69
2019-06-06 14:00:00 17.6 10 Sur 27 Norte 0 -- -- 67
2019-06-06 13:00:00 17.2 7 Nordeste 27 Nordeste 0 -- -- 68
2019-06-06 12:00:00 16.5 15 Nordeste 31 Nordeste 0 -- -- 66
2019-06-06 11:00:00 15.9 16 Norte 33 Nordeste 0 -- -- 72
2019-06-06 10:00:00 15.7 11 Nordeste 33 Nordeste 0 -- -- 63
2019-06-06 09:00:00 14.9 13 Nordeste 23 Norte 0 -- -- 72
2019-06-06 08:00:00 14.1 13 Nordeste 27 Nordeste 0 -- -- 73
2019-06-06 07:00:00 13.7 11 Nordeste 18 Nordeste 0 -- -- 73
2019-06-06 06:00:00 13.7 8 Nordeste 24 Nordeste 0 -- -- 75
2019-06-06 05:00:00 13.6 12 Nordeste 26 Nordeste 0 -- -- 78
2019-06-06 04:00:00 13.5 4 Nordeste 8 Oeste 0 -- -- 85
2019-06-06 03:00:00 13.5 4 Sudeste 8 Nordeste 0 -- -- 86
2019-06-06 02:00:00 13.7 4 Nordeste 13 Nordeste 0 -- -- 83
2019-06-06 01:00:00 15.3 0 Calma 13 Sudoeste 0 -- -- 87
2019-06-06 00:00:00 15.7 6 Sudoeste 10 Sur 0 -- -- 95
2019-06-05 23:00:00 15.7 5 Sur 13 Sudoeste 0 -- -- 92
2019-06-05 22:00:00 16.2 6 Sudoeste 11 Sur 0 -- -- 91
2019-06-05 21:00:00 17 5 Sudoeste 12 Sudoeste 0 -- -- 87
2019-06-05 20:00:00 17.2 9 Sur 23 Norte 0 -- -- 87
2019-06-05 19:00:00 18.5 8 Oeste 23 Noroeste 0 -- -- 68
2019-06-05 18:00:00 18.3 10 Oeste 32 Oeste 0 -- -- 81
2019-06-05 17:00:00 18.5 8 Sudoeste 16 Sur 0 -- -- 79
2019-06-05 16:00:00 18 9 Sudoeste 19 Sudoeste 0 -- -- 86
2019-06-05 15:00:00 16.6 7 Sur 15 Sur 0 -- -- 90
2019-06-05 14:00:00 17.2 8 Sudoeste 16 Sudeste 0 -- -- 89
2019-06-05 13:00:00 18.3 10 Sudoeste 18 Sur 0 -- -- 82
2019-06-05 12:00:00 18.1 7 Sudoeste 13 Sudoeste 0 -- -- 82
2019-06-05 11:00:00 16.9 5 Sudoeste 14 Sur 0 -- -- 89
2019-06-05 10:00:00 17 6 Sudoeste 17 Sur 0 -- -- 87
2019-06-05 09:00:00 15.4 4 Sur 7 Sudeste 0 -- -- 89
2019-06-05 08:00:00 13.8 3 Sudeste 8 Sur 0 -- -- 88
2019-06-05 07:00:00 14.1 3 Sudoeste 8 Sur 0 -- -- 91
2019-06-05 06:00:00 14.4 5 Sudeste 13 Sudoeste 0 -- -- 87
2019-06-05 05:00:00 14.9 3 Nordeste 4 Nordeste 0 -- -- 83
2019-06-05 04:00:00 15.1 0 Calma 8 Sur 0 -- -- 78
2019-06-05 03:00:00 15 0 Calma 7 Sudeste 0 -- -- 82
2019-06-05 02:00:00 15.6 2 Norte 6 Noroeste 0 -- -- 80
2019-06-05 01:00:00 16.3 2 Sudoeste 14 Norte 0 -- -- 71
2019-06-05 00:00:00 16 0 Calma 11 Norte 0 -- -- 85
2019-06-04 23:00:00 16.7 2 Sur 12 Noroeste 0 -- -- 90
2019-06-04 22:00:00 18.1 3 Sudoeste 9 Sur 0 -- -- 73
2019-06-04 21:00:00 21 3 Nordeste 21 Noroeste 0 -- -- 57
2019-06-04 20:00:00 22.3 12 Noroeste 19 Norte 0 -- -- 56
2019-06-04 19:00:00 23.2 7 Noroeste 13 Noroeste 0 -- -- 63
2019-06-04 18:00:00 23.1 8 Sudoeste 15 Sur 0 -- -- 63
2019-06-04 17:00:00 23.3 9 Sudoeste 16 Sudoeste 0 -- -- 63
2019-06-04 16:00:00 23.4 7 Sudoeste 17 Sur 0 -- -- 64
2019-06-04 15:00:00 23.7 9 Sudoeste 17 Sudoeste 0 -- -- 57
2019-06-04 14:00:00 24.2 9 Sudoeste 18 Sur 0 -- -- 50
2019-06-04 13:00:00 23.7 7 Sudoeste 15 Sudoeste 0 -- -- 52
2019-06-04 12:00:00 23.8 8 Sur 13 Sudoeste 0 -- -- 50
2019-06-04 11:00:00 23.7 6 Sudoeste 11 Sur 0 -- -- 36
2019-06-04 10:00:00 23.1 6 Sur 10 Sur 0 -- -- 38
2019-06-04 09:00:00 21 3 Sur 8 Norte 0 -- -- 36
2019-06-04 08:00:00 19.7 2 Norte 10 Nordeste 0 -- -- 37
2019-06-04 07:00:00 20.1 2 Sudeste 6 Sur 0 -- -- 34
2019-06-04 06:00:00 19.9 3 Sudeste 9 Sur 0 -- -- 34
2019-06-04 05:00:00 20.1 4 Sudeste 8 Sudeste 0 -- -- 36
2019-06-04 04:00:00 19.8 4 Sudeste 7 Sudeste 0 -- -- 41
2019-06-04 03:00:00 20.4 0 Calma 8 Sudeste 0 -- -- 41
2019-06-04 02:00:00 20.8 3 Sudeste 9 Sur 0 -- -- 40
2019-06-04 01:00:00 20.8 6 Sudeste 13 Sudeste 0 -- -- 39
2019-06-04 00:00:00 21.3 6 Nordeste 13 Nordeste 0 -- -- 43
2019-06-03 23:00:00 21.8 0 Calma 15 Nordeste 0 -- -- 42
2019-06-03 22:00:00 21.9 10 Nordeste 19 Este 0 -- -- 42
2019-06-03 21:00:00 24.2 6 Nordeste 14 Este 0 -- -- 35
2019-06-03 20:00:00 26.6 9 Norte 16 Nordeste 0 -- -- 33
2019-06-03 19:00:00 27.5 6 Oeste 12 Noroeste 0 -- -- 40
2019-06-03 18:00:00 27.4 6 Sudoeste 13 Sudoeste 0 -- -- 41
2019-06-03 17:00:00 28.7 7 Sudoeste 13 Sudoeste 0 -- -- 37
2019-06-03 16:00:00 28.2 8 Sudoeste 14 Sudoeste 0 -- -- 35
2019-06-03 15:00:00 28.5 8 Sudoeste 14 Sudoeste 0 -- -- 34
2019-06-03 14:00:00 29.4 8 Sudoeste 14 Sur 0 -- -- 30
2019-06-03 13:00:00 29.5 6 Sudoeste 11 Sur 0 -- -- 20
2019-06-03 12:00:00 27.6 5 Sur 9 Sur 0 -- -- 33
2019-06-03 11:00:00 27.6 5 Sudoeste 9 Sur 0 -- -- 30
2019-06-03 10:00:00 27.5 0 Calma 6 Oeste 0 -- -- 23
2019-06-03 09:00:00 25.7 0 Calma 8 Este 0 -- -- 27
2019-06-03 08:00:00 23.9 3 Noroeste 9 Este 0 -- -- 26
2019-06-03 07:00:00 23.1 4 Este 12 Sudeste 0 -- -- 27
2019-06-03 06:00:00 22.6 3 Sudeste 9 Sudeste 0 -- -- 28
2019-06-03 05:00:00 21.3 3 Norte 6 Norte 0 -- -- 33
2019-06-03 04:00:00 21.3 0 Calma 9 Sur 0 -- -- 38
2019-06-03 03:00:00 22.2 4 Sur 12 Sudeste 0 -- -- 38
2019-06-03 02:00:00 23.3 3 Sudeste 9 Norte 0 -- -- 30
2019-06-03 01:00:00 24 0 Calma 11 Este 0 -- -- 30
2019-06-03 00:00:00 23.9 2 Sudeste 8 Nordeste 0 -- -- 29
2019-06-02 23:00:00 24.5 3 Sudeste 9 Este 0 -- -- 28
2019-06-02 22:00:00 24.9 4 Este 8 Sudeste 0 -- -- 27
2019-06-02 21:00:00 27.1 3 Sudeste 6 Sudoeste 0 -- -- 33
2019-06-02 20:00:00 29.4 3 Oeste 8 Sudoeste 0 -- -- 25
2019-06-02 19:00:00 29.6 5 Oeste 10 Sudoeste 0 -- -- 46
2019-06-02 18:00:00 30 5 Sur 12 Oeste 0 -- -- 27
2019-06-02 17:00:00 29.4 5 Sudoeste 13 Sudoeste 0 -- -- 42
2019-06-02 16:00:00 29.7 6 Sudoeste 14 Noroeste 0 -- -- 48
2019-06-02 15:00:00 29.9 10 Sur 16 Sur 0 -- -- 27
2019-06-02 14:00:00 28.7 7 Sur 13 Sudoeste 0 -- -- 30
2019-06-02 13:00:00 27.1 5 Sudoeste 13 Sudoeste 0 -- -- 44
2019-06-02 12:00:00 26.9 8 Noroeste 15 Noroeste 0 -- -- 52
2019-06-02 11:00:00 25.6 6 Noroeste 12 Noroeste 0 -- -- 50
2019-06-02 10:00:00 23.9 3 Noroeste 9 Noroeste 0 -- -- 41
2019-06-02 09:00:00 20.7 3 Este 9 Nordeste 0 -- -- 48
2019-06-02 08:00:00 17.8 4 Norte 10 Norte 0 -- -- 56
2019-06-02 07:00:00 15.2 4 Sur 9 Nordeste 0 -- -- 71
2019-06-02 06:00:00 13.7 4 Sudeste 10 Norte 0 -- -- 92
2019-06-02 05:00:00 13.6 4 Sudeste 9 Sudeste 0 -- -- 93
2019-06-02 04:00:00 14.6 3 Sudeste 10 Sur 0 -- -- 95
2019-06-02 03:00:00 15 0 Calma 8 Norte 0 -- -- 93
2019-06-02 02:00:00 16.1 4 Sur 22 Nordeste 0 -- -- 90
2019-06-02 01:00:00 18.1 7 Nordeste 28 Este 0 -- -- 58
2019-06-02 00:00:00 19.3 13 Nordeste 27 Este 0 -- -- 46
2019-06-01 23:00:00 18.7 11 Nordeste 26 Este 0 -- -- 53
2019-06-01 22:00:00 16.2 2 Sur 9 Sur 0 -- -- 96
2019-06-01 21:00:00 16.7 3 Sur 10 Sur 0 -- -- 94
2019-06-01 20:00:00 17.9 6 Sur 11 Sudoeste 0 -- -- 88
2019-06-01 19:00:00 19.6 7 Sur 12 Sudoeste 0 -- -- 80
2019-06-01 18:00:00 20.7 6 Sudoeste 16 Sur 0 -- -- 75
2019-06-01 17:00:00 20.6 8 Sudoeste 17 Sudoeste 0 -- -- 75
2019-06-01 16:00:00 20.2 8 Sur 18 Sur 0 -- -- 77
2019-06-01 15:00:00 19 7 Sudoeste 17 Oeste 0 -- -- 82
2019-06-01 14:00:00 18.6 5 Sudoeste 15 Sudoeste 0 -- -- 83
2019-06-01 13:00:00 18.1 9 Sudoeste 16 Sudoeste 0 -- -- 83
2019-06-01 12:00:00 18 9 Sudoeste 14 Sur 0 -- -- 85
2019-06-01 11:00:00 16.9 6 Sudoeste 12 Sudoeste 0 -- -- 90
2019-06-01 10:00:00 17.4 3 Sudoeste 13 Sur 0 -- -- 85
2019-06-01 09:00:00 18.8 4 Este 11 Nordeste 0 -- -- 50
2019-06-01 08:00:00 15.6 3 Sudeste 13 Sur 0 -- -- 62
2019-06-01 07:00:00 15 6 Nordeste 13 Nordeste 0 -- -- 63
2019-06-01 06:00:00 13.4 0 Calma 10 Norte 0 -- -- 91
2019-06-01 05:00:00 14.5 5 Sudeste 10 Sudeste 0 -- -- 97
2019-06-01 04:00:00 14.6 3 Sur 11 Sur 0 -- -- 97
2019-06-01 03:00:00 14.6 5 Sur 13 Sudeste 0 -- -- 97
2019-06-01 02:00:00 14.5 5 Sur 14 Sur 0 -- -- 96
2019-06-01 01:00:00 14.9 6 Sur 12 Sur 0 -- -- 95
2019-06-01 00:00:00 15.3 3 Norte 7 Sur 0 -- -- 63
2019-05-31 23:00:00 15.2 0 Calma 9 Sudoeste 0 -- -- 93
2019-05-31 22:00:00 15.8 0 Calma 7 Sur 0 -- -- 92
2019-05-31 21:00:00 17.3 2 Sur 9 Sur 0 -- -- 86
2019-05-31 20:00:00 19.2 5 Sur 12 Sur 0 -- -- 78
2019-05-31 19:00:00 20.8 6 Sudoeste 13 Sur 0 -- -- 72
2019-05-31 18:00:00 21.7 6 Norte 14 Norte 0 -- -- 70
2019-05-31 17:00:00 21.1 5 Sur 17 Norte 0 -- -- 68
2019-05-31 16:00:00 20.8 7 Sudoeste 13 Sudoeste 0 -- -- 70
2019-05-31 15:00:00 20.5 6 Sudoeste 15 Nordeste 0 -- -- 70
2019-05-31 14:00:00 20.9 6 Sudoeste 19 Norte 0 -- -- 69
2019-05-31 13:00:00 19.6 5 Sudoeste 14 Sudoeste 0 -- -- 74
2019-05-31 12:00:00 18.5 6 Sudoeste 13 Sur 0 -- -- 78
2019-05-31 11:00:00 18.1 5 Norte 15 Norte 0 -- -- 82
2019-05-31 10:00:00 15.7 3 Oeste 18 Este 0 -- -- 89
2019-05-31 09:00:00 14.1 7 Nordeste 18 Nordeste 0 -- -- 95
2019-05-31 08:00:00 12.4 5 Sudeste 13 Este 0 -- -- 95
2019-05-31 07:00:00 12.7 3 Sudeste 8 Sudeste 0 -- -- 97
2019-05-31 06:00:00 12 3 Nordeste 19 Este 0 -- -- 95
2019-05-31 05:00:00 12.5 4 Nordeste 8 Nordeste 0 -- -- 96
2019-05-31 04:00:00 12.3 4 Nordeste 20 Este 0 -- -- 95
2019-05-31 03:00:00 12.3 4 Norte 12 Nordeste 0 -- -- 95
2019-05-31 02:00:00 12.7 5 Nordeste 9 Nordeste 0 -- -- 96
2019-05-31 01:00:00 12.9 3 Sur 8 Sur 0 -- -- 96
2019-05-31 00:00:00 13.1 2 Nordeste 6 Nordeste 0 -- -- 94
2019-05-30 23:00:00 13 3 Nordeste 10 Nordeste 0 -- -- 92
2019-05-30 22:00:00 13.6 6 Nordeste 15 Nordeste 0 -- -- 92
2019-05-30 21:00:00 15 10 Nordeste 22 Nordeste 0 -- -- 86
2019-05-30 20:00:00 17.1 13 Nordeste 25 Nordeste 0 -- -- 79
2019-05-30 19:00:00 17.8 15 Norte 28 Norte 0 -- -- 77
2019-05-30 18:00:00 19.2 13 Nordeste 24 Nordeste 0 -- -- 72
2019-05-30 17:00:00 19.8 12 Nordeste 22 Norte 0 -- -- 70
2019-05-30 16:00:00 20 7 Norte 15 Oeste 0 -- -- 69
2019-05-30 15:00:00 19.6 6 Sudoeste 15 Sur 0 -- -- 71
2019-05-30 14:00:00 19.1 7 Oeste 14 Sur 0 -- -- 72
2019-05-30 13:00:00 18.4 8 Sudoeste 13 Oeste 0 -- -- 76
2019-05-30 12:00:00 17.5 5 Oeste 12 Sur 0 -- -- 78
2019-05-30 11:00:00 16.4 8 Sur 15 Sur 0 -- -- 83
2019-05-30 10:00:00 15.2 3 Sur 11 Sudeste 0 -- -- 88
2019-05-30 09:00:00 13.8 5 Sudoeste 12 Sur 0 -- -- 95
2019-05-30 08:00:00 12.2 3 Sudeste 12 Sur 0 -- -- 97
2019-05-30 07:00:00 12.1 4 Sudeste 15 Sur 0 -- -- 95
2019-05-30 06:00:00 12.3 5 Sur 13 Sur 0 -- -- 94
2019-05-30 05:00:00 13.4 5 Sur 10 Sudoeste 0 -- -- 96
2019-05-30 04:00:00 13.5 4 Sur 12 Sudoeste 0 -- -- 94
2019-05-30 03:00:00 13.9 8 Sur 12 Sur 0 -- -- 93
2019-05-30 02:00:00 14.3 2 Sudoeste 11 Sur 0 -- -- 95
2019-05-30 01:00:00 14.4 5 Sudoeste 14 Sur 0 -- -- 96
2019-05-30 00:00:00 14.4 10 Sur 18 Sur 0 -- -- 96
2019-05-29 23:00:00 14.4 6 Sur 10 Sur 0 -- -- 96
2019-05-29 22:00:00 14.2 2 Este 10 Nordeste 0 -- -- 88
2019-05-29 21:00:00 15.7 3 Norte 8 Nordeste 0 -- -- 84
2019-05-29 20:00:00 17.4 6 Sudoeste 15 Norte 0 -- -- 81
2019-05-29 19:00:00 19.2 5 Sudoeste 14 Sudoeste 0 -- -- 73
2019-05-29 18:00:00 19.7 8 Sudoeste 17 Sudoeste 0 -- -- 70
2019-05-29 17:00:00 20.6 8 Oeste 16 Oeste 0 -- -- 67
2019-05-29 16:00:00 20.6 8 Sudoeste 17 Sudoeste 0 -- -- 66
2019-05-29 15:00:00 19.4 7 Sudoeste 17 Sudoeste 0 -- -- 69
2019-05-29 14:00:00 18.6 9 Sudoeste 16 Sudoeste 0 -- -- 74
2019-05-29 13:00:00 17.8 7 Sudoeste 15 Oeste 0 -- -- 78
2019-05-29 12:00:00 16.5 7 Sur 13 Sur 0 -- -- 86
2019-05-29 11:00:00 15.8 8 Sur 13 Sur 0 -- -- 89
2019-05-29 10:00:00 15.5 5 Oeste 17 Sur 0 -- -- 92
2019-05-29 09:00:00 14.1 9 Sur 12 Sur 0 -- -- 97
2019-05-29 08:00:00 13.1 6 Sur 11 Sur 0 -- -- 98
2019-05-29 07:00:00 13.3 4 Sudeste 10 Sudeste 0 -- -- 95
2019-05-29 06:00:00 14 5 Sudeste 11 Sur 0 -- -- 96
2019-05-29 05:00:00 13.9 0 Calma 9 Sur 0 -- -- 97
2019-05-29 04:00:00 13.9 5 Sur 12 Sur 0 -- -- 96
2019-05-29 03:00:00 13.7 0 Calma 7 Sudeste 0 -- -- 94
2019-05-29 02:00:00 14.3 5 Sur 17 Sur 0 -- -- 95
2019-05-29 01:00:00 14.8 12 Sur 17 Sur 0 -- -- 96
2019-05-29 00:00:00 15 2 Norte 8 Sur 0 -- -- 95
2019-05-28 23:00:00 15.4 3 Sudoeste 6 Sudoeste 0 -- -- 89
2019-05-28 22:00:00 17.1 4 Sur 9 Sur 0 -- -- 78
2019-05-28 21:00:00 19.1 3 Sur 9 Sudoeste 0 -- -- 72
2019-05-28 20:00:00 21.6 8 Sur 13 Sur 0 -- -- 60
2019-05-28 19:00:00 21.3 5 Sudoeste 12 Sur 0 -- -- 70
2019-05-28 18:00:00 20.9 6 Oeste 19 Norte 0 -- -- 69
2019-05-28 17:00:00 20.4 6 Sudoeste 19 Sur 0 -- -- 73
2019-05-28 16:00:00 21.7 10 Sudoeste 15 Sudoeste 0 -- -- 65
2019-05-28 15:00:00 24.1 12 Sudoeste 17 Sudoeste 0 -- -- 46
2019-05-28 14:00:00 23 8 Sur 13 Sur 0 -- -- 41
2019-05-28 13:00:00 18.8 7 Sudoeste 14 Sudoeste 0 -- -- 79
2019-05-28 12:00:00 18.9 4 Oeste 11 Sur 0 -- -- 80
2019-05-28 11:00:00 19.6 5 Oeste 13 Noroeste 0 -- -- 75
2019-05-28 10:00:00 19.7 2 Sudoeste 6 Sudoeste 0 -- -- 60
2019-05-28 09:00:00 19.1 0 Calma 8 Este 0 -- -- 40
2019-05-28 08:00:00 17.2 0 Calma 11 Norte 0 -- -- 40
2019-05-28 07:00:00 16.6 5 Nordeste 14 Norte 0 -- -- 45
2019-05-28 06:00:00 17.7 5 Nordeste 9 Sudeste 0 -- -- 39
2019-05-28 05:00:00 17.3 6 Sudeste 9 Sudeste 0 -- -- 40
2019-05-28 04:00:00 17.3 3 Este 6 Este 0 -- -- 39
2019-05-28 03:00:00 17.5 0 Calma 8 Este 0 -- -- 39
2019-05-28 02:00:00 17.1 4 Nordeste 8 Norte 0 -- -- 45
2019-05-28 01:00:00 17.5 2 Sudeste 8 Este 0 -- -- 44
2019-05-28 00:00:00 17.1 2 Sudeste 5 Este 0 -- -- 46
2019-05-27 23:00:00 17.7 4 Sudeste 8 Sur 0 -- -- 49
2019-05-27 22:00:00 18.8 2 Sudeste 5 Sudeste 0 -- -- 44
2019-05-27 21:00:00 21 0 Calma 8 Sudoeste 0 -- -- 42
2019-05-27 20:00:00 22.5 6 Sudoeste 11 Sur 0 -- -- 37
2019-05-27 19:00:00 23.8 7 Sudoeste 13 Sudoeste 0 -- -- 40
2019-05-27 18:00:00 23.6 8 Sur 14 Sur 0 -- -- 36
2019-05-27 17:00:00 23.2 7 Sudoeste 15 Sur 0 -- -- 47
2019-05-27 16:00:00 21.1 8 Sudoeste 14 Sur 0 -- -- 71
2019-05-27 15:00:00 21.3 8 Sur 14 Sur 0 -- -- 70
2019-05-27 14:00:00 22.2 6 Sudoeste 13 Sudoeste 0 -- -- 65
2019-05-27 13:00:00 21.2 7 Sur 15 Sur 0 -- -- 62
2019-05-27 12:00:00 20.8 9 Sur 16 Sudoeste 0 -- -- 56
2019-05-27 11:00:00 20.4 5 Sudoeste 9 Oeste 0 -- -- 49
2019-05-27 10:00:00 18.4 4 Sudoeste 9 Sur 0 -- -- 61
2019-05-27 09:00:00 16.3 3 Sur 9 Nordeste 0 -- -- 55
2019-05-27 08:00:00 16.5 6 Nordeste 10 Nordeste 0 -- -- 44
2019-05-27 07:00:00 15.1 3 Sudeste 7 Sudeste 0 -- -- 48
2019-05-27 06:00:00 13.8 5 Sudeste 9 Sudeste 0 -- -- 58
2019-05-27 05:00:00 13.7 4 Sudeste 8 Sudeste 0 -- -- 74
2019-05-27 04:00:00 14.1 4 Sudeste 8 Sur 0 -- -- 77
2019-05-27 03:00:00 15 2 Sudeste 6 Sudoeste 0 -- -- 66
2019-05-27 02:00:00 15.6 0 Calma 6 Sudeste 0 -- -- 60
2019-05-27 01:00:00 14.8 3 Sudeste 6 Sudeste 0 -- -- 68
2019-05-27 00:00:00 14 5 Sur 7 Sudeste 0 -- -- 95
2019-05-26 23:00:00 14.6 0 Calma 7 Nordeste 0 -- -- 94
2019-05-26 22:00:00 15 0 Calma 10 Sur 0 -- -- 94
2019-05-26 21:00:00 16.6 2 Sur 9 Sur 0 -- -- 87
2019-05-26 20:00:00 18 3 Sur 10 Sudoeste 0 -- -- 83
2019-05-26 19:00:00 17.2 4 Oeste 17 Sur 0 -- -- 86
2019-05-26 18:00:00 19.8 10 Sudoeste 19 Sudoeste 0 -- -- 72
2019-05-26 17:00:00 19.3 8 Sudoeste 18 Sudoeste 0 -- -- 71
2019-05-26 16:00:00 19.6 8 Oeste 16 Sur 0 -- -- 70
2019-05-26 15:00:00 19.9 9 Sudoeste 21 Sudoeste 0 -- -- 64
2019-05-26 14:00:00 19.6 9 Sudoeste 18 Sur 0 -- -- 67
2019-05-26 13:00:00 19 9 Sudoeste 17 Sudoeste 0 -- -- 72
2019-05-26 12:00:00 17.9 10 Sudoeste 17 Sur 0 -- -- 75
2019-05-26 11:00:00 17.4 10 Sur 14 Sur 0 -- -- 79
2019-05-26 10:00:00 16.8 6 Sur 12 Sur 0 -- -- 68
2019-05-26 09:00:00 14.3 7 Sur 17 Sur 0 -- -- 81
2019-05-26 08:00:00 13 5 Sudeste 12 Sudeste 0 -- -- 80
2019-05-26 07:00:00 12.1 5 Sudeste 16 Sur 0 -- -- 85
2019-05-26 06:00:00 11.8 4 Sur 13 Sudeste 0 -- -- 90
2019-05-26 05:00:00 13.1 4 Sur 8 Sur 0 -- -- 94
2019-05-26 04:00:00 13.7 0 Calma 10 Sur 0 -- -- 96
2019-05-26 03:00:00 13.7 8 Sur 17 Sur 0 -- -- 97
2019-05-26 02:00:00 13.6 0 Calma 10 Sur 0 -- -- 95
2019-05-26 01:00:00 14.3 4 Sur 12 Sudoeste 0 -- -- 97
2019-05-26 00:00:00 14.5 5 Sudoeste 12 Sur 0 -- -- 98
2019-05-25 23:00:00 14.2 3 Sur 10 Sudeste 0 -- -- 93
2019-05-25 22:00:00 14.9 4 Sur 8 Sudoeste 0 -- -- 95
2019-05-25 21:00:00 15.5 7 Sur 15 Sudoeste 0 -- -- 93
2019-05-25 20:00:00 17.2 6 Sur 11 Sur 0 -- -- 87
2019-05-25 19:00:00 17.4 5 Sudoeste 15 Sur 0 -- -- 88
2019-05-25 18:00:00 17 8 Sur 22 Sur 0 -- -- 87
2019-05-25 17:00:00 19 10 Sudoeste 20 Sur 0 -- -- 80
2019-05-25 16:00:00 20.4 11 Sur 17 Sudoeste 0 -- -- 73
2019-05-25 15:00:00 19.7 6 Norte 18 Sur 0 -- -- 79
2019-05-25 14:00:00 16.9 6 Sudoeste 13 Sudoeste 0 -- -- 90
2019-05-25 13:00:00 18.6 7 Sudoeste 15 Oeste 0 -- -- 82
2019-05-25 12:00:00 19.4 6 Sudoeste 14 Sudoeste 0 -- -- 75
2019-05-25 11:00:00 17.4 4 Oeste 12 Sudoeste 0 -- -- 85
2019-05-25 10:00:00 15.8 5 Oeste 11 Noroeste 0 -- -- 87
2019-05-25 09:00:00 15.3 6 Noroeste 20 Norte 0 -- -- 89
2019-05-25 08:00:00 17.5 10 Sudeste 19 Sudeste 0 -- -- 37
2019-05-25 07:00:00 13.9 6 Sudeste 12 Sudeste 0 -- -- 67
2019-05-25 06:00:00 13.8 3 Sudeste 9 Norte 0 -- -- 83
2019-05-25 05:00:00 15.7 2 Sur 12 Nordeste 0 -- -- 57
2019-05-25 04:00:00 14.8 6 Este 16 Este 0 -- -- 61
2019-05-25 03:00:00 15 4 Sudeste 8 Sudeste 0 -- -- 72
2019-05-25 02:00:00 17.9 5 Nordeste 13 Este 0 -- -- 42
2019-05-25 01:00:00 17.6 5 Sudeste 8 Sudeste 0 -- -- 40
2019-05-25 00:00:00 18.1 6 Nordeste 10 Nordeste 0 -- -- 40